Terminal Aerodrome Forecast
Issued by NWS

Home | Current Version | Previous Version | Text Only | Print | Product List | Glossary On
Versions: 1 2 3 4 5 6 7 8 9 10 11 12 13 14 15 16 17 18 19 20 21 22 23 24
000
FTAK31 PANC 211136
TAFATK
TAF
PATK 211136Z 2112/2212 VRB04KT P6SM SCT120
      TEMPO 2112/2115 04010G18KT
     FM220000 02004KT P6SM -SHSN BKN035 OVC080=

USA.gov is the U.S. government's official web portal to all federal, state and local government web resources and services.